Cosco France — VRMC2 — position and weather

sailwx.info

Track history (hours):
 
Tides and Currents Weather Stations Pressure Air Temp Water Temp Dewpoint Dewpoint Depression Visibility Wind Speed Wind Dir Waves Ship Positions

Cosco France

Last reported at 2018-Jul-07 10:16 UTC. Time now 2018-Jul-18 10:12 UTC.
Position N 01°25' E 103°13'.
Warning: this ship's position is 10 days out of date.

Length 366 m; draft 15.5 m.

Type: Ship (hazmat cat A). MMSI: 477030700.

Date/timePositionNaut miles runAvg speedWind from/ knotsBaromVisibWave heightAir tempDewpointWater temp
2018-Jul-07 10:16N 01°25' E 103°13'518.1
2018-Jul-07 09:59N 01°21' E 103°16'917.7
2018-Jul-07 09:30N 01°16' E 103°23'917.6
2018-Jul-07 08:59N 01°12' E 103°31'918.0
2018-Jul-07 08:30N 01°11' E 103°39'815.4
2018-Jul-07 08:00N 01°10' E 103°47'3 6.0
2018-Jul-07 07:30N 01°13' E 103°47'3 6.1
2018-Jul-07 07:00N 01°16' E 103°47'0 0.9
2018-Jul-07 06:30N 01°16' E 103°47'0 0.0
2018-Jul-07 06:00N 01°16' E 103°47'0 0.1
2018-Jul-07 05:30N 01°16' E 103°47'0 0.1
2018-Jul-07 05:00N 01°16' E 103°47'0 0.1
2018-Jul-07 04:30N 01°16' E 103°47'0 0.1
2018-Jul-07 04:00N 01°16' E 103°47'0 0.1
2018-Jul-07 03:30N 01°16' E 103°47'0 0.1
2018-Jul-07 03:00N 01°16' E 103°47'0 0.0
2018-Jul-07 02:30N 01°16' E 103°47'0 0.1
2018-Jul-07 01:58N 01°16' E 103°47'0 0.0
2018-Jul-07 01:30N 01°16' E 103°47'0 0.1
2018-Jul-07 01:00N 01°16' E 103°47'0 0.0
2018-Jul-07 00:30N 01°16' E 103°47'0 0.1
2018-Jul-07 00:00N 01°16' E 103°47'0 0.1
2018-Jul-06 23:30N 01°16' E 103°47'0 0.1
2018-Jul-06 23:00N 01°16' E 103°47'0 0.0
2018-Jul-06 22:30N 01°16' E 103°47'0 0.0
2018-Jul-06 22:00N 01°16' E 103°47'0 0.0
2018-Jul-06 21:27N 01°16' E 103°47'0 0.0
2018-Jul-06 20:57N 01°16' E 103°47'0 0.1
2018-Jul-06 20:30N 01°16' E 103°47'0 0.0
2018-Jul-06 20:00N 01°16' E 103°47'0 0.0
2018-Jul-06 19:30N 01°16' E 103°47'0 0.0
2018-Jul-06 19:00N 01°16' E 103°47'0 0.0
2018-Jul-06 18:30N 01°16' E 103°47'0 0.1
2018-Jul-06 18:00N 01°16' E 103°47'0 0.0
2018-Jul-06 17:30N 01°16' E 103°47'0 0.0
2018-Jul-06 17:00N 01°16' E 103°47'0 0.0
2018-Jul-06 16:25N 01°16' E 103°47'0 0.1
2018-Jul-06 16:00N 01°16' E 103°47'0 0.1
2018-Jul-06 15:27N 01°16' E 103°47'0 0.1
2018-Jul-06 15:00N 01°16' E 103°47'0 0.1
2018-Jul-06 14:30N 01°16' E 103°47'0 0.1
2018-Jul-06 13:58N 01°16' E 103°47'0 0.0
2018-Jul-06 13:28N 01°16' E 103°47'0 0.1
2018-Jul-06 13:00N 01°16' E 103°47'0 0.0
2018-Jul-06 12:30N 01°16' E 103°47'0 1.0
2018-Jul-06 12:00N 01°16' E 103°47'2 5.0
2018-Jul-06 11:30N 01°15' E 103°45'5 9.5
2018-Jul-06 10:59N 01°13' E 103°40'4 8.7
2018-Jul-06 10:30N 01°12' E 103°36'3 6.2
2018-Jul-06 10:00N 01°11' E 103°33'2 3.2
2018-Jul-06 09:31N 01°10' E 103°32'0 0.5
2018-Jul-06 08:59N 01°10' E 103°32'0 0.7
2018-Jul-06 08:30N 01°10' E 103°31'2 3.8
2018-Jul-06 08:00N 01°12' E 103°31'4 8.9
2018-Jul-06 07:30N 01°16' E 103°33'3 5.2
2018-Jul-06 07:00N 01°19' E 103°33'2 4.0
2018-Jul-06 06:30N 01°21' E 103°33'1 1.7
2018-Jul-06 06:00N 01°22' E 103°33'0 0.2
2018-Jul-06 05:21N 01°22' E 103°33'0 0.0
2018-Jul-06 04:57N 01°22' E 103°33'0 0.0
2018-Jul-06 04:30N 01°22' E 103°33'0 0.0
2018-Jul-06 03:55N 01°22' E 103°33'0 0.0
2018-Jul-06 03:27N 01°22' E 103°33'0 0.0
2018-Jul-06 03:00N 01°22' E 103°33'0 0.0
2018-Jul-06 02:30N 01°22' E 103°33'0 0.0
2018-Jul-06 01:58N 01°22' E 103°33'0 0.0
2018-Jul-06 01:30N 01°22' E 103°33'0 0.0
2018-Jul-06 01:00N 01°22' E 103°33'0 0.0
2018-Jul-06 00:24N 01°22' E 103°33'0 0.0
2018-Jul-05 23:58N 01°22' E 103°33'0 0.0
2018-Jul-05 23:28N 01°22' E 103°33'0 0.0
2018-Jul-05 22:57N 01°22' E 103°33'0 0.0
2018-Jul-05 22:30N 01°22' E 103°33'0 0.0
2018-Jul-05 21:58N 01°22' E 103°33'0 0.0
2018-Jul-05 21:28N 01°22' E 103°33'0 0.0
2018-Jul-05 20:57N 01°22' E 103°33'0 0.0
2018-Jul-05 20:30N 01°22' E 103°33'0 0.0
2018-Jul-05 19:58N 01°22' E 103°33'0 0.0
2018-Jul-05 19:30N 01°22' E 103°33'0 0.0
2018-Jul-05 18:57N 01°22' E 103°33'0 0.0
2018-Jul-05 18:30N 01°22' E 103°33'0 0.3
2018-Jul-05 18:00N 01°22' E 103°33'3 5.6
2018-Jul-05 17:30N 01°19' E 103°33'4 9.0
2018-Jul-05 17:01N 01°15' E 103°32'5 9.0
2018-Jul-05 16:30N 01°12' E 103°36'612.7
2018-Jul-05 16:00N 01°09' E 103°42'816.7
2018-Jul-05 15:30N 01°11' E 103°50'1019.0
2018-Jul-05 15:00N 01°15' E 103°59'1019.5
2018-Jul-05 14:30N 01°16' E 104°08'1918.7
2018-Jul-05 13:29N 01°24' E 104°26'  
2018-Jun-29 12:44N 23°12' E 117°27'710.9
2018-Jun-29 12:03N 23°17' E 117°33'010.6
2018-Jun-29 12:00N 23°17' E 117°33'611.4
2018-Jun-29 11:30N 23°21' E 117°38'611.4
2018-Jun-29 10:59N 23°25' E 117°43'611.7
2018-Jun-29 10:29N 23°29' E 117°48'611.8
2018-Jun-29 10:00N 23°32' E 117°53'611.8
2018-Jun-29 09:30N 23°36' E 117°57'612.1
2018-Jun-29 09:00N 23°40' E 118°02'611.9
2018-Jun-29 08:28N 23°44' E 118°08'611.9
2018-Jun-29 08:00N 23°48' E 118°13'812.1
2018-Jun-29 07:21N 23°53' E 118°19'512.0
2018-Jun-29 06:55N 23°56' E 118°24'511.9
2018-Jun-29 06:30N 23°59' E 118°28'611.9
2018-Jun-29 06:00N 24°03' E 118°33'612.0
2018-Jun-29 05:30N 24°07' E 118°38'612.0
2018-Jun-29 05:00N 24°10' E 118°43'612.0
2018-Jun-29 04:30N 24°15' E 118°48'611.7
2018-Jun-29 04:00N 24°19' E 118°52'611.8
2018-Jun-29 03:30N 24°23' E 118°57'611.9
2018-Jun-29 03:00N 24°27' E 119°02'1115.6
2018-Jun-29 02:17N 24°34' E 119°11'717.7
2018-Jun-29 01:55N 24°38' E 119°17'  
Track history (hours):
 
Tides and Currents Weather Stations Pressure Air Temp Water Temp Dewpoint Dewpoint Depression Visibility Wind Speed Wind Dir Waves Ship Positions

Cosco France

Last reported at 2018-Jul-07 10:16 UTC. Time now 2018-Jul-18 10:12 UTC.
Position N 01°25' E 103°13'.
Warning: this ship's position is 10 days out of date.

Length 366 m; draft 15.5 m.

Type: Ship (hazmat cat A). MMSI: 477030700.

Date/timePositionNaut miles runAvg speedWind from/ knotsBaromVisibWave heightAir tempDewpointWater temp
2018-Jul-07 10:16N 01°25' E 103°13'518.1
2018-Jul-07 09:59N 01°21' E 103°16'917.7
2018-Jul-07 09:30N 01°16' E 103°23'917.6
2018-Jul-07 08:59N 01°12' E 103°31'918.0
2018-Jul-07 08:30N 01°11' E 103°39'815.4
2018-Jul-07 08:00N 01°10' E 103°47'3 6.0
2018-Jul-07 07:30N 01°13' E 103°47'3 6.1
2018-Jul-07 07:00N 01°16' E 103°47'0 0.9
2018-Jul-07 06:30N 01°16' E 103°47'0 0.0
2018-Jul-07 06:00N 01°16' E 103°47'0 0.1
2018-Jul-07 05:30N 01°16' E 103°47'0 0.1
2018-Jul-07 05:00N 01°16' E 103°47'0 0.1
2018-Jul-07 04:30N 01°16' E 103°47'0 0.1
2018-Jul-07 04:00N 01°16' E 103°47'0 0.1
2018-Jul-07 03:30N 01°16' E 103°47'0 0.1
2018-Jul-07 03:00N 01°16' E 103°47'0 0.0
2018-Jul-07 02:30N 01°16' E 103°47'0 0.1
2018-Jul-07 01:58N 01°16' E 103°47'0 0.0
2018-Jul-07 01:30N 01°16' E 103°47'0 0.1
2018-Jul-07 01:00N 01°16' E 103°47'0 0.0
2018-Jul-07 00:30N 01°16' E 103°47'0 0.1
2018-Jul-07 00:00N 01°16' E 103°47'0 0.1
2018-Jul-06 23:30N 01°16' E 103°47'0 0.1
2018-Jul-06 23:00N 01°16' E 103°47'0 0.0
2018-Jul-06 22:30N 01°16' E 103°47'0 0.0
2018-Jul-06 22:00N 01°16' E 103°47'0 0.0
2018-Jul-06 21:27N 01°16' E 103°47'0 0.0
2018-Jul-06 20:57N 01°16' E 103°47'0 0.1
2018-Jul-06 20:30N 01°16' E 103°47'0 0.0
2018-Jul-06 20:00N 01°16' E 103°47'0 0.0
2018-Jul-06 19:30N 01°16' E 103°47'0 0.0
2018-Jul-06 19:00N 01°16' E 103°47'0 0.0
2018-Jul-06 18:30N 01°16' E 103°47'0 0.1
2018-Jul-06 18:00N 01°16' E 103°47'0 0.0
2018-Jul-06 17:30N 01°16' E 103°47'0 0.0
2018-Jul-06 17:00N 01°16' E 103°47'0 0.0
2018-Jul-06 16:25N 01°16' E 103°47'0 0.1
2018-Jul-06 16:00N 01°16' E 103°47'0 0.1
2018-Jul-06 15:27N 01°16' E 103°47'0 0.1
2018-Jul-06 15:00N 01°16' E 103°47'0 0.1
2018-Jul-06 14:30N 01°16' E 103°47'0 0.1
2018-Jul-06 13:58N 01°16' E 103°47'0 0.0
2018-Jul-06 13:28N 01°16' E 103°47'0 0.1
2018-Jul-06 13:00N 01°16' E 103°47'0 0.0
2018-Jul-06 12:30N 01°16' E 103°47'0 1.0
2018-Jul-06 12:00N 01°16' E 103°47'2 5.0
2018-Jul-06 11:30N 01°15' E 103°45'5 9.5
2018-Jul-06 10:59N 01°13' E 103°40'4 8.7
2018-Jul-06 10:30N 01°12' E 103°36'3 6.2
2018-Jul-06 10:00N 01°11' E 103°33'2 3.2
2018-Jul-06 09:31N 01°10' E 103°32'0 0.5
2018-Jul-06 08:59N 01°10' E 103°32'0 0.7
2018-Jul-06 08:30N 01°10' E 103°31'2 3.8
2018-Jul-06 08:00N 01°12' E 103°31'4 8.9
2018-Jul-06 07:30N 01°16' E 103°33'3 5.2
2018-Jul-06 07:00N 01°19' E 103°33'2 4.0
2018-Jul-06 06:30N 01°21' E 103°33'1 1.7
2018-Jul-06 06:00N 01°22' E 103°33'0 0.2
2018-Jul-06 05:21N 01°22' E 103°33'0 0.0
2018-Jul-06 04:57N 01°22' E 103°33'0 0.0
2018-Jul-06 04:30N 01°22' E 103°33'0 0.0
2018-Jul-06 03:55N 01°22' E 103°33'0 0.0
2018-Jul-06 03:27N 01°22' E 103°33'0 0.0
2018-Jul-06 03:00N 01°22' E 103°33'0 0.0
2018-Jul-06 02:30N 01°22' E 103°33'0 0.0
2018-Jul-06 01:58N 01°22' E 103°33'0 0.0
2018-Jul-06 01:30N 01°22' E 103°33'0 0.0
2018-Jul-06 01:00N 01°22' E 103°33'0 0.0
2018-Jul-06 00:24N 01°22' E 103°33'0 0.0
2018-Jul-05 23:58N 01°22' E 103°33'0 0.0
2018-Jul-05 23:28N 01°22' E 103°33'0 0.0
2018-Jul-05 22:57N 01°22' E 103°33'0 0.0
2018-Jul-05 22:30N 01°22' E 103°33'0 0.0
2018-Jul-05 21:58N 01°22' E 103°33'0 0.0
2018-Jul-05 21:28N 01°22' E 103°33'0 0.0
2018-Jul-05 20:57N 01°22' E 103°33'0 0.0
2018-Jul-05 20:30N 01°22' E 103°33'0 0.0
2018-Jul-05 19:58N 01°22' E 103°33'0 0.0
2018-Jul-05 19:30N 01°22' E 103°33'0 0.0
2018-Jul-05 18:57N 01°22' E 103°33'0 0.0
2018-Jul-05 18:30N 01°22' E 103°33'0 0.3
2018-Jul-05 18:00N 01°22' E 103°33'3 5.6
2018-Jul-05 17:30N 01°19' E 103°33'4 9.0
2018-Jul-05 17:01N 01°15' E 103°32'5 9.0
2018-Jul-05 16:30N 01°12' E 103°36'612.7
2018-Jul-05 16:00N 01°09' E 103°42'816.7
2018-Jul-05 15:30N 01°11' E 103°50'1019.0
2018-Jul-05 15:00N 01°15' E 103°59'1019.5
2018-Jul-05 14:30N 01°16' E 104°08'1918.7
2018-Jul-05 13:29N 01°24' E 104°26'  
2018-Jun-29 12:44N 23°12' E 117°27'710.9
2018-Jun-29 12:03N 23°17' E 117°33'010.6
2018-Jun-29 12:00N 23°17' E 117°33'611.4
2018-Jun-29 11:30N 23°21' E 117°38'611.4
2018-Jun-29 10:59N 23°25' E 117°43'611.7
2018-Jun-29 10:29N 23°29' E 117°48'611.8
2018-Jun-29 10:00N 23°32' E 117°53'611.8
2018-Jun-29 09:30N 23°36' E 117°57'612.1
2018-Jun-29 09:00N 23°40' E 118°02'611.9
2018-Jun-29 08:28N 23°44' E 118°08'611.9
2018-Jun-29 08:00N 23°48' E 118°13'812.1
2018-Jun-29 07:21N 23°53' E 118°19'512.0
2018-Jun-29 06:55N 23°56' E 118°24'511.9
2018-Jun-29 06:30N 23°59' E 118°28'611.9
2018-Jun-29 06:00N 24°03' E 118°33'612.0
2018-Jun-29 05:30N 24°07' E 118°38'612.0
2018-Jun-29 05:00N 24°10' E 118°43'612.0
2018-Jun-29 04:30N 24°15' E 118°48'611.7
2018-Jun-29 04:00N 24°19' E 118°52'611.8
2018-Jun-29 03:30N 24°23' E 118°57'611.9
2018-Jun-29 03:00N 24°27' E 119°02'1115.6
2018-Jun-29 02:17N 24°34' E 119°11'717.7
2018-Jun-29 01:55N 24°38' E 119°17'  

Dump ship's entire track history